sensor_id;sensor_type;location;lat;lon;timestamp;P1;durP1;ratioP1;P2;durP2;ratioP2
3487;SDS011;38546;48.170;11.724;2022-08-19T00:02:33;11.33;;;8.70;;
3487;SDS011;38546;48.170;11.724;2022-08-19T00:05:23;10.53;;;8.87;;
3487;SDS011;38546;48.170;11.724;2022-08-19T00:08:12;11.63;;;9.83;;
3487;SDS011;38546;48.170;11.724;2022-08-19T00:11:01;11.20;;;9.67;;
3487;SDS011;38546;48.170;11.724;2022-08-19T00:13:51;10.00;;;8.80;;
3487;SDS011;38546;48.170;11.724;2022-08-19T00:16:41;11.10;;;8.60;;
3487;SDS011;38546;48.170;11.724;2022-08-19T00:19:34;11.00;;;8.87;;
3487;SDS011;38546;48.170;11.724;2022-08-19T00:22:25;14.73;;;9.73;;
3487;SDS011;38546;48.170;11.724;2022-08-19T00:25:16;10.80;;;8.57;;
3487;SDS011;38546;48.170;11.724;2022-08-19T00:28:06;11.07;;;9.30;;
3487;SDS011;38546;48.170;11.724;2022-08-19T00:30:55;12.83;;;8.87;;
3487;SDS011;38546;48.170;11.724;2022-08-19T00:33:45;10.37;;;8.57;;
3487;SDS011;38546;48.170;11.724;2022-08-19T00:36:35;10.93;;;8.63;;
3487;SDS011;38546;48.170;11.724;2022-08-19T00:39:25;13.53;;;9.00;;
3487;SDS011;38546;48.170;11.724;2022-08-19T00:42:14;10.63;;;8.30;;
3487;SDS011;38546;48.170;11.724;2022-08-19T00:45:08;14.20;;;9.37;;
3487;SDS011;38546;48.170;11.724;2022-08-19T00:48:03;14.60;;;10.00;;
3487;SDS011;38546;48.170;11.724;2022-08-19T00:50:53;12.30;;;10.40;;
3487;SDS011;38546;48.170;11.724;2022-08-19T00:53:43;12.43;;;9.23;;
3487;SDS011;38546;48.170;11.724;2022-08-19T00:56:33;13.57;;;10.27;;
3487;SDS011;38546;48.170;11.724;2022-08-19T00:59:22;14.00;;;10.27;;
3487;SDS011;38546;48.170;11.724;2022-08-19T01:02:13;12.97;;;10.77;;
3487;SDS011;38546;48.170;11.724;2022-08-19T01:05:06;13.68;;;10.52;;
3487;SDS011;38546;48.170;11.724;2022-08-19T01:08:00;15.60;;;10.50;;
3487;SDS011;38546;48.170;11.724;2022-08-19T01:10:53;15.50;;;11.53;;
3487;SDS011;38546;48.170;11.724;2022-08-19T01:13:45;14.37;;;11.03;;
3487;SDS011;38546;48.170;11.724;2022-08-19T01:16:36;14.30;;;10.70;;
3487;SDS011;38546;48.170;11.724;2022-08-19T01:19:28;16.00;;;12.20;;
3487;SDS011;38546;48.170;11.724;2022-08-19T01:22:31;17.70;;;12.63;;
3487;SDS011;38546;48.170;11.724;2022-08-19T01:25:40;15.80;;;12.37;;
3487;SDS011;38546;48.170;11.724;2022-08-19T01:28:39;17.07;;;13.10;;
3487;SDS011;38546;48.170;11.724;2022-08-19T01:31:30;15.67;;;12.50;;
3487;SDS011;38546;48.170;11.724;2022-08-19T01:34:19;21.67;;;13.50;;
3487;SDS011;38546;48.170;11.724;2022-08-19T01:37:10;20.90;;;13.33;;
3487;SDS011;38546;48.170;11.724;2022-08-19T01:40:00;21.40;;;14.93;;
3487;SDS011;38546;48.170;11.724;2022-08-19T01:42:50;21.43;;;13.13;;
3487;SDS011;38546;48.170;11.724;2022-08-19T01:45:40;22.13;;;13.97;;
3487;SDS011;38546;48.170;11.724;2022-08-19T01:48:35;21.10;;;14.43;;
3487;SDS011;38546;48.170;11.724;2022-08-19T01:51:29;23.30;;;14.57;;
3487;SDS011;38546;48.170;11.724;2022-08-19T01:54:19;17.87;;;13.57;;
3487;SDS011;38546;48.170;11.724;2022-08-19T01:57:12;20.87;;;14.40;;
3487;SDS011;38546;48.170;11.724;2022-08-19T02:00:04;19.47;;;14.90;;
3487;SDS011;38546;48.170;11.724;2022-08-19T02:02:57;21.37;;;15.43;;
3487;SDS011;38546;48.170;11.724;2022-08-19T02:05:46;22.50;;;14.67;;
3487;SDS011;38546;48.170;11.724;2022-08-19T02:08:36;25.70;;;15.20;;
3487;SDS011;38546;48.170;11.724;2022-08-19T02:11:30;19.17;;;13.40;;
3487;SDS011;38546;48.170;11.724;2022-08-19T02:14:21;28.55;;;14.40;;
3487;SDS011;38546;48.170;11.724;2022-08-19T02:17:10;23.77;;;13.90;;
3487;SDS011;38546;48.170;11.724;2022-08-19T02:20:01;20.03;;;13.97;;
3487;SDS011;38546;48.170;11.724;2022-08-19T02:22:51;20.87;;;13.60;;
3487;SDS011;38546;48.170;11.724;2022-08-19T02:25:41;15.20;;;12.23;;
3487;SDS011;38546;48.170;11.724;2022-08-19T02:28:36;16.25;;;12.32;;
3487;SDS011;38546;48.170;11.724;2022-08-19T02:31:25;15.60;;;11.77;;
3487;SDS011;38546;48.170;11.724;2022-08-19T02:34:16;17.50;;;13.40;;
3487;SDS011;38546;48.170;11.724;2022-08-19T02:37:06;17.37;;;11.90;;
3487;SDS011;38546;48.170;11.724;2022-08-19T02:41:17;14.40;;;11.20;;
3487;SDS011;38546;48.170;11.724;2022-08-19T02:44:10;16.10;;;12.00;;
3487;SDS011;38546;48.170;11.724;2022-08-19T02:46:59;17.97;;;12.70;;
3487;SDS011;38546;48.170;11.724;2022-08-19T02:49:48;14.43;;;10.55;;
3487;SDS011;38546;48.170;11.724;2022-08-19T02:52:40;17.80;;;12.97;;
3487;SDS011;38546;48.170;11.724;2022-08-19T02:55:29;13.50;;;10.50;;
3487;SDS011;38546;48.170;11.724;2022-08-19T02:58:19;13.60;;;11.07;;
3487;SDS011;38546;48.170;11.724;2022-08-19T03:01:10;13.50;;;10.87;;
3487;SDS011;38546;48.170;11.724;2022-08-19T03:04:13;15.53;;;10.70;;
3487;SDS011;38546;48.170;11.724;2022-08-19T03:07:04;14.00;;;10.33;;
3487;SDS011;38546;48.170;11.724;2022-08-19T03:09:53;15.48;;;11.02;;
3487;SDS011;38546;48.170;11.724;2022-08-19T03:12:42;15.18;;;10.35;;
3487;SDS011;38546;48.170;11.724;2022-08-19T03:15:31;16.53;;;11.50;;
3487;SDS011;38546;48.170;11.724;2022-08-19T03:18:20;14.70;;;10.20;;
3487;SDS011;38546;48.170;11.724;2022-08-19T03:21:14;15.00;;;10.60;;
3487;SDS011;38546;48.170;11.724;2022-08-19T03:24:07;13.03;;;10.07;;
3487;SDS011;38546;48.170;11.724;2022-08-19T03:26:57;16.10;;;11.37;;
3487;SDS011;38546;48.170;11.724;2022-08-19T03:29:47;16.30;;;11.80;;
3487;SDS011;38546;48.170;11.724;2022-08-19T03:32:37;16.23;;;11.40;;
3487;SDS011;38546;48.170;11.724;2022-08-19T03:35:26;14.13;;;11.33;;
3487;SDS011;38546;48.170;11.724;2022-08-19T03:38:15;14.70;;;11.10;;
3487;SDS011;38546;48.170;11.724;2022-08-19T03:41:06;16.07;;;10.90;;
3487;SDS011;38546;48.170;11.724;2022-08-19T03:44:00;16.93;;;10.63;;
3487;SDS011;38546;48.170;11.724;2022-08-19T03:46:50;17.63;;;12.00;;
3487;SDS011;38546;48.170;11.724;2022-08-19T03:49:43;15.63;;;10.57;;
3487;SDS011;38546;48.170;11.724;2022-08-19T03:52:32;15.40;;;10.68;;
3487;SDS011;38546;48.170;11.724;2022-08-19T03:55:22;12.93;;;9.90;;
3487;SDS011;38546;48.170;11.724;2022-08-19T03:58:11;15.40;;;12.07;;
3487;SDS011;38546;48.170;11.724;2022-08-19T04:01:00;16.03;;;11.43;;
3487;SDS011;38546;48.170;11.724;2022-08-19T04:03:50;15.50;;;10.53;;
3487;SDS011;38546;48.170;11.724;2022-08-19T04:06:39;15.53;;;11.80;;
3487;SDS011;38546;48.170;11.724;2022-08-19T04:09:28;16.27;;;11.23;;
3487;SDS011;38546;48.170;11.724;2022-08-19T04:12:17;11.30;;;9.50;;
3487;SDS011;38546;48.170;11.724;2022-08-19T04:15:09;15.18;;;11.00;;
3487;SDS011;38546;48.170;11.724;2022-08-19T04:17:59;15.27;;;10.53;;
3487;SDS011;38546;48.170;11.724;2022-08-19T04:20:48;16.07;;;10.87;;
3487;SDS011;38546;48.170;11.724;2022-08-19T04:23:38;18.37;;;12.93;;
3487;SDS011;38546;48.170;11.724;2022-08-19T04:26:29;14.48;;;11.00;;
3487;SDS011;38546;48.170;11.724;2022-08-19T04:29:24;15.33;;;11.43;;
3487;SDS011;38546;48.170;11.724;2022-08-19T04:32:15;17.00;;;12.50;;
3487;SDS011;38546;48.170;11.724;2022-08-19T04:35:04;17.03;;;11.33;;
3487;SDS011;38546;48.170;11.724;2022-08-19T04:37:54;18.60;;;11.68;;
3487;SDS011;38546;48.170;11.724;2022-08-19T04:40:46;16.03;;;11.60;;
3487;SDS011;38546;48.170;11.724;2022-08-19T04:43:56;15.60;;;11.00;;
3487;SDS011;38546;48.170;11.724;2022-08-19T04:46:45;19.30;;;12.30;;
3487;SDS011;38546;48.170;11.724;2022-08-19T04:49:37;17.00;;;12.83;;
3487;SDS011;38546;48.170;11.724;2022-08-19T04:52:26;18.87;;;12.77;;
3487;SDS011;38546;48.170;11.724;2022-08-19T04:55:16;22.20;;;12.83;;
3487;SDS011;38546;48.170;11.724;2022-08-19T04:58:06;15.98;;;11.48;;
3487;SDS011;38546;48.170;11.724;2022-08-19T05:00:56;19.52;;;13.40;;
3487;SDS011;38546;48.170;11.724;2022-08-19T05:03:45;15.27;;;10.43;;
3487;SDS011;38546;48.170;11.724;2022-08-19T05:06:35;15.20;;;11.27;;
3487;SDS011;38546;48.170;11.724;2022-08-19T05:09:25;17.20;;;11.43;;
3487;SDS011;38546;48.170;11.724;2022-08-19T05:12:15;17.93;;;12.93;;
3487;SDS011;38546;48.170;11.724;2022-08-19T05:15:05;17.43;;;12.50;;
3487;SDS011;38546;48.170;11.724;2022-08-19T05:17:57;13.70;;;11.30;;
3487;SDS011;38546;48.170;11.724;2022-08-19T05:21:12;17.10;;;11.43;;
3487;SDS011;38546;48.170;11.724;2022-08-19T05:26:43;16.70;;;11.03;;
3487;SDS011;38546;48.170;11.724;2022-08-19T05:29:35;14.82;;;12.13;;
3487;SDS011;38546;48.170;11.724;2022-08-19T05:32:24;16.43;;;10.77;;
3487;SDS011;38546;48.170;11.724;2022-08-19T05:35:14;12.40;;;9.23;;
3487;SDS011;38546;48.170;11.724;2022-08-19T05:38:03;16.73;;;12.10;;
3487;SDS011;38546;48.170;11.724;2022-08-19T05:40:51;15.73;;;10.73;;
3487;SDS011;38546;48.170;11.724;2022-08-19T05:43:40;16.67;;;12.77;;
3487;SDS011;38546;48.170;11.724;2022-08-19T05:46:30;16.37;;;10.73;;
3487;SDS011;38546;48.170;11.724;2022-08-19T05:49:19;15.83;;;10.57;;
3487;SDS011;38546;48.170;11.724;2022-08-19T05:52:11;13.45;;;10.32;;
3487;SDS011;38546;48.170;11.724;2022-08-19T05:55:04;15.23;;;12.07;;
3487;SDS011;38546;48.170;11.724;2022-08-19T05:57:54;13.13;;;10.67;;
3487;SDS011;38546;48.170;11.724;2022-08-19T06:00:44;12.80;;;9.90;;
3487;SDS011;38546;48.170;11.724;2022-08-19T06:03:33;17.83;;;11.63;;
3487;SDS011;38546;48.170;11.724;2022-08-19T06:06:25;13.13;;;10.53;;
3487;SDS011;38546;48.170;11.724;2022-08-19T06:09:15;17.02;;;10.73;;
3487;SDS011;38546;48.170;11.724;2022-08-19T06:12:04;16.60;;;13.03;;
3487;SDS011;38546;48.170;11.724;2022-08-19T06:14:54;18.40;;;11.37;;
3487;SDS011;38546;48.170;11.724;2022-08-19T06:17:44;17.73;;;11.90;;
3487;SDS011;38546;48.170;11.724;2022-08-19T06:20:33;20.90;;;13.90;;
3487;SDS011;38546;48.170;11.724;2022-08-19T06:23:22;16.37;;;11.55;;
3487;SDS011;38546;48.170;11.724;2022-08-19T06:26:12;19.77;;;13.97;;
3487;SDS011;38546;48.170;11.724;2022-08-19T06:29:04;20.80;;;15.00;;
3487;SDS011;38546;48.170;11.724;2022-08-19T06:31:56;16.97;;;12.37;;
3487;SDS011;38546;48.170;11.724;2022-08-19T06:34:48;16.80;;;11.83;;
3487;SDS011;38546;48.170;11.724;2022-08-19T06:37:37;20.65;;;14.60;;
3487;SDS011;38546;48.170;11.724;2022-08-19T06:40:26;22.00;;;16.12;;
3487;SDS011;38546;48.170;11.724;2022-08-19T06:43:15;22.13;;;15.63;;
3487;SDS011;38546;48.170;11.724;2022-08-19T06:46:08;22.37;;;16.40;;
3487;SDS011;38546;48.170;11.724;2022-08-19T06:49:00;28.47;;;17.70;;
3487;SDS011;38546;48.170;11.724;2022-08-19T06:51:49;28.25;;;17.95;;
3487;SDS011;38546;48.170;11.724;2022-08-19T06:54:39;27.67;;;18.40;;
3487;SDS011;38546;48.170;11.724;2022-08-19T06:57:30;31.50;;;18.90;;
3487;SDS011;38546;48.170;11.724;2022-08-19T07:00:20;36.77;;;21.47;;
3487;SDS011;38546;48.170;11.724;2022-08-19T07:03:09;30.90;;;18.83;;
3487;SDS011;38546;48.170;11.724;2022-08-19T07:06:19;33.90;;;21.20;;
3487;SDS011;38546;48.170;11.724;2022-08-19T07:09:09;31.00;;;20.57;;
3487;SDS011;38546;48.170;11.724;2022-08-19T07:12:01;31.17;;;20.00;;
3487;SDS011;38546;48.170;11.724;2022-08-19T07:14:51;37.40;;;21.47;;
3487;SDS011;38546;48.170;11.724;2022-08-19T07:17:41;37.83;;;22.93;;
3487;SDS011;38546;48.170;11.724;2022-08-19T07:20:31;34.47;;;21.60;;
3487;SDS011;38546;48.170;11.724;2022-08-19T07:23:21;32.87;;;22.10;;
3487;SDS011;38546;48.170;11.724;2022-08-19T07:26:18;38.93;;;23.27;;
3487;SDS011;38546;48.170;11.724;2022-08-19T07:29:10;34.80;;;22.60;;
3487;SDS011;38546;48.170;11.724;2022-08-19T07:32:01;32.90;;;21.08;;
3487;SDS011;38546;48.170;11.724;2022-08-19T07:34:53;35.40;;;22.57;;
3487;SDS011;38546;48.170;11.724;2022-08-19T07:37:43;34.47;;;21.55;;
3487;SDS011;38546;48.170;11.724;2022-08-19T07:40:32;31.70;;;20.37;;
3487;SDS011;38546;48.170;11.724;2022-08-19T07:43:21;33.20;;;20.50;;
3487;SDS011;38546;48.170;11.724;2022-08-19T07:46:13;32.17;;;20.40;;
3487;SDS011;38546;48.170;11.724;2022-08-19T07:49:03;28.70;;;18.03;;
3487;SDS011;38546;48.170;11.724;2022-08-19T07:51:55;34.92;;;19.98;;
3487;SDS011;38546;48.170;11.724;2022-08-19T07:54:49;29.47;;;18.70;;
3487;SDS011;38546;48.170;11.724;2022-08-19T07:57:39;31.67;;;20.10;;
3487;SDS011;38546;48.170;11.724;2022-08-19T08:00:29;28.43;;;20.07;;
3487;SDS011;38546;48.170;11.724;2022-08-19T08:03:19;33.83;;;22.03;;
3487;SDS011;38546;48.170;11.724;2022-08-19T08:12:01;36.00;;;22.53;;
3487;SDS011;38546;48.170;11.724;2022-08-19T08:15:00;38.85;;;26.42;;
3487;SDS011;38546;48.170;11.724;2022-08-19T08:17:56;39.97;;;26.03;;
3487;SDS011;38546;48.170;11.724;2022-08-19T08:20:46;37.27;;;24.00;;
3487;SDS011;38546;48.170;11.724;2022-08-19T08:23:36;41.65;;;27.73;;
3487;SDS011;38546;48.170;11.724;2022-08-19T08:26:25;44.22;;;25.70;;
3487;SDS011;38546;48.170;11.724;2022-08-19T08:29:14;39.83;;;24.80;;
3487;SDS011;38546;48.170;11.724;2022-08-19T08:32:04;41.60;;;27.07;;
3487;SDS011;38546;48.170;11.724;2022-08-19T08:34:54;48.57;;;29.87;;
3487;SDS011;38546;48.170;11.724;2022-08-19T08:37:44;46.28;;;27.65;;
3487;SDS011;38546;48.170;11.724;2022-08-19T08:40:39;45.53;;;28.33;;
3487;SDS011;38546;48.170;11.724;2022-08-19T08:43:39;47.00;;;28.53;;
3487;SDS011;38546;48.170;11.724;2022-08-19T08:46:38;50.90;;;27.63;;
3487;SDS011;38546;48.170;11.724;2022-08-19T08:49:54;41.80;;;25.40;;
3487;SDS011;38546;48.170;11.724;2022-08-19T08:52:56;48.43;;;28.57;;
3487;SDS011;38546;48.170;11.724;2022-08-19T08:55:47;51.37;;;29.23;;
3487;SDS011;38546;48.170;11.724;2022-08-19T08:58:41;49.40;;;29.17;;
3487;SDS011;38546;48.170;11.724;2022-08-19T09:01:40;50.83;;;28.98;;
3487;SDS011;38546;48.170;11.724;2022-08-19T09:04:29;39.27;;;23.23;;
3487;SDS011;38546;48.170;11.724;2022-08-19T09:10:54;37.20;;;22.90;;
3487;SDS011;38546;48.170;11.724;2022-08-19T09:14:01;38.30;;;25.13;;
3487;SDS011;38546;48.170;11.724;2022-08-19T09:17:30;37.70;;;23.13;;
3487;SDS011;38546;48.170;11.724;2022-08-19T09:20:22;44.10;;;28.73;;
3487;SDS011;38546;48.170;11.724;2022-08-19T09:23:12;47.80;;;29.63;;
3487;SDS011;38546;48.170;11.724;2022-08-19T09:26:10;45.30;;;28.60;;
3487;SDS011;38546;48.170;11.724;2022-08-19T09:29:02;55.97;;;31.43;;
3487;SDS011;38546;48.170;11.724;2022-08-19T09:31:54;46.27;;;28.87;;
3487;SDS011;38546;48.170;11.724;2022-08-19T09:34:43;52.97;;;29.97;;
3487;SDS011;38546;48.170;11.724;2022-08-19T09:37:34;52.43;;;30.87;;
3487;SDS011;38546;48.170;11.724;2022-08-19T09:40:24;58.60;;;31.53;;
3487;SDS011;38546;48.170;11.724;2022-08-19T09:43:15;49.07;;;28.10;;
3487;SDS011;38546;48.170;11.724;2022-08-19T09:46:04;60.57;;;34.67;;
3487;SDS011;38546;48.170;11.724;2022-08-19T09:48:57;59.57;;;31.37;;
3487;SDS011;38546;48.170;11.724;2022-08-19T09:51:51;58.43;;;33.07;;
3487;SDS011;38546;48.170;11.724;2022-08-19T09:54:44;54.10;;;30.77;;
3487;SDS011;38546;48.170;11.724;2022-08-19T09:57:34;47.40;;;29.60;;
3487;SDS011;38546;48.170;11.724;2022-08-19T10:00:24;43.40;;;28.53;;
3487;SDS011;38546;48.170;11.724;2022-08-19T10:03:15;48.30;;;28.33;;
3487;SDS011;38546;48.170;11.724;2022-08-19T10:06:04;41.40;;;26.87;;
3487;SDS011;38546;48.170;11.724;2022-08-19T10:08:54;38.57;;;25.43;;
3487;SDS011;38546;48.170;11.724;2022-08-19T10:11:44;41.63;;;26.00;;
3487;SDS011;38546;48.170;11.724;2022-08-19T10:14:36;35.60;;;24.30;;
3487;SDS011;38546;48.170;11.724;2022-08-19T10:17:26;35.03;;;21.27;;
3487;SDS011;38546;48.170;11.724;2022-08-19T10:20:16;34.57;;;21.60;;
3487;SDS011;38546;48.170;11.724;2022-08-19T10:23:05;34.80;;;22.70;;
3487;SDS011;38546;48.170;11.724;2022-08-19T10:25:54;30.33;;;21.10;;
3487;SDS011;38546;48.170;11.724;2022-08-19T10:28:48;30.90;;;20.03;;
3487;SDS011;38546;48.170;11.724;2022-08-19T10:31:38;21.07;;;17.60;;
3487;SDS011;38546;48.170;11.724;2022-08-19T10:34:28;26.00;;;17.87;;
3487;SDS011;38546;48.170;11.724;2022-08-19T10:37:19;21.93;;;16.33;;
3487;SDS011;38546;48.170;11.724;2022-08-19T10:40:08;21.50;;;16.03;;
3487;SDS011;38546;48.170;11.724;2022-08-19T10:42:59;21.83;;;16.10;;
3487;SDS011;38546;48.170;11.724;2022-08-19T10:45:52;19.33;;;14.83;;
3487;SDS011;38546;48.170;11.724;2022-08-19T10:48:45;17.77;;;12.95;;
3487;SDS011;38546;48.170;11.724;2022-08-19T10:51:34;19.17;;;13.70;;
3487;SDS011;38546;48.170;11.724;2022-08-19T10:54:43;18.87;;;13.37;;
3487;SDS011;38546;48.170;11.724;2022-08-19T10:57:51;22.33;;;16.07;;
3487;SDS011;38546;48.170;11.724;2022-08-19T11:00:42;22.00;;;15.45;;
3487;SDS011;38546;48.170;11.724;2022-08-19T11:03:32;23.13;;;15.60;;
3487;SDS011;38546;48.170;11.724;2022-08-19T11:06:21;20.20;;;14.30;;
3487;SDS011;38546;48.170;11.724;2022-08-19T11:09:12;18.80;;;13.90;;
3487;SDS011;38546;48.170;11.724;2022-08-19T11:12:15;19.57;;;14.43;;
3487;SDS011;38546;48.170;11.724;2022-08-19T11:15:07;16.65;;;12.70;;
3487;SDS011;38546;48.170;11.724;2022-08-19T11:17:59;16.93;;;12.40;;
3487;SDS011;38546;48.170;11.724;2022-08-19T11:20:49;16.53;;;12.00;;
3487;SDS011;38546;48.170;11.724;2022-08-19T11:23:38;15.15;;;12.43;;
3487;SDS011;38546;48.170;11.724;2022-08-19T11:26:29;17.20;;;12.77;;
3487;SDS011;38546;48.170;11.724;2022-08-19T11:29:20;18.87;;;13.00;;
3487;SDS011;38546;48.170;11.724;2022-08-19T11:32:09;17.70;;;12.97;;
3487;SDS011;38546;48.170;11.724;2022-08-19T11:34:59;17.30;;;12.97;;
3487;SDS011;38546;48.170;11.724;2022-08-19T11:37:48;18.73;;;13.80;;
3487;SDS011;38546;48.170;11.724;2022-08-19T11:40:37;17.47;;;13.37;;
3487;SDS011;38546;48.170;11.724;2022-08-19T11:43:27;17.05;;;13.75;;
3487;SDS011;38546;48.170;11.724;2022-08-19T11:46:17;16.50;;;12.80;;
3487;SDS011;38546;48.170;11.724;2022-08-19T11:49:07;14.77;;;11.43;;
3487;SDS011;38546;48.170;11.724;2022-08-19T11:51:57;14.90;;;12.10;;
3487;SDS011;38546;48.170;11.724;2022-08-19T11:54:47;13.67;;;11.00;;
3487;SDS011;38546;48.170;11.724;2022-08-19T11:57:37;12.13;;;10.83;;
3487;SDS011;38546;48.170;11.724;2022-08-19T12:00:26;15.57;;;13.27;;
3487;SDS011;38546;48.170;11.724;2022-08-19T12:03:16;14.40;;;10.82;;
3487;SDS011;38546;48.170;11.724;2022-08-19T12:06:10;13.13;;;10.60;;
3487;SDS011;38546;48.170;11.724;2022-08-19T12:09:04;13.40;;;10.97;;
3487;SDS011;38546;48.170;11.724;2022-08-19T12:11:56;9.90;;;8.90;;
3487;SDS011;38546;48.170;11.724;2022-08-19T12:14:45;8.23;;;6.27;;
3487;SDS011;38546;48.170;11.724;2022-08-19T12:17:35;7.40;;;5.30;;
3487;SDS011;38546;48.170;11.724;2022-08-19T12:20:25;5.30;;;4.90;;
3487;SDS011;38546;48.170;11.724;2022-08-19T12:23:14;5.50;;;5.10;;
3487;SDS011;38546;48.170;11.724;2022-08-19T12:26:03;5.50;;;5.00;;
3487;SDS011;38546;48.170;11.724;2022-08-19T12:28:53;4.50;;;4.20;;
3487;SDS011;38546;48.170;11.724;2022-08-19T12:31:42;4.00;;;3.70;;
3487;SDS011;38546;48.170;11.724;2022-08-19T12:34:32;3.30;;;3.10;;
3487;SDS011;38546;48.170;11.724;2022-08-19T12:37:22;3.30;;;3.10;;
3487;SDS011;38546;48.170;11.724;2022-08-19T12:40:11;3.67;;;3.47;;
3487;SDS011;38546;48.170;11.724;2022-08-19T12:43:02;3.53;;;3.23;;
3487;SDS011;38546;48.170;11.724;2022-08-19T12:45:51;2.93;;;2.77;;
3487;SDS011;38546;48.170;11.724;2022-08-19T12:48:40;3.15;;;2.95;;
3487;SDS011;38546;48.170;11.724;2022-08-19T12:51:33;3.30;;;3.10;;
3487;SDS011;38546;48.170;11.724;2022-08-19T12:54:23;2.60;;;2.50;;
3487;SDS011;38546;48.170;11.724;2022-08-19T12:57:12;2.87;;;2.77;;
3487;SDS011;38546;48.170;11.724;2022-08-19T13:00:08;2.55;;;2.35;;
3487;SDS011;38546;48.170;11.724;2022-08-19T13:03:06;4.07;;;3.00;;
3487;SDS011;38546;48.170;11.724;2022-08-19T13:05:56;2.37;;;2.20;;
3487;SDS011;38546;48.170;11.724;2022-08-19T13:08:45;2.20;;;2.10;;
3487;SDS011;38546;48.170;11.724;2022-08-19T13:11:34;2.70;;;2.50;;
3487;SDS011;38546;48.170;11.724;2022-08-19T13:14:24;2.47;;;2.37;;
3487;SDS011;38546;48.170;11.724;2022-08-19T13:17:13;1.80;;;1.80;;
3487;SDS011;38546;48.170;11.724;2022-08-19T13:20:04;2.63;;;2.50;;
3487;SDS011;38546;48.170;11.724;2022-08-19T13:22:59;2.73;;;2.53;;
3487;SDS011;38546;48.170;11.724;2022-08-19T13:25:55;2.20;;;2.10;;
3487;SDS011;38546;48.170;11.724;2022-08-19T13:28:46;2.10;;;2.00;;
3487;SDS011;38546;48.170;11.724;2022-08-19T13:31:54;1.80;;;1.80;;
3487;SDS011;38546;48.170;11.724;2022-08-19T13:35:02;2.00;;;1.90;;
3487;SDS011;38546;48.170;11.724;2022-08-19T13:37:53;2.30;;;2.20;;
3487;SDS011;38546;48.170;11.724;2022-08-19T13:40:43;2.47;;;2.37;;
3487;SDS011;38546;48.170;11.724;2022-08-19T13:43:32;1.97;;;1.97;;
3487;SDS011;38546;48.170;11.724;2022-08-19T13:46:22;1.93;;;1.83;;
3487;SDS011;38546;48.170;11.724;2022-08-19T13:49:11;2.03;;;1.92;;
3487;SDS011;38546;48.170;11.724;2022-08-19T13:52:04;2.50;;;2.30;;
3487;SDS011;38546;48.170;11.724;2022-08-19T13:54:54;3.97;;;2.67;;
3487;SDS011;38546;48.170;11.724;2022-08-19T13:57:45;2.87;;;2.67;;
3487;SDS011;38546;48.170;11.724;2022-08-19T14:00:40;3.60;;;3.30;;
3487;SDS011;38546;48.170;11.724;2022-08-19T14:03:34;4.53;;;4.13;;
3487;SDS011;38546;48.170;11.724;2022-08-19T14:06:24;3.60;;;3.30;;
3487;SDS011;38546;48.170;11.724;2022-08-19T14:09:14;4.30;;;3.90;;
3487;SDS011;38546;48.170;11.724;2022-08-19T14:12:03;4.00;;;3.60;;
3487;SDS011;38546;48.170;11.724;2022-08-19T14:14:53;4.57;;;3.73;;
3487;SDS011;38546;48.170;11.724;2022-08-19T14:17:43;3.80;;;3.50;;
3487;SDS011;38546;48.170;11.724;2022-08-19T14:20:37;4.80;;;3.90;;
3487;SDS011;38546;48.170;11.724;2022-08-19T14:23:26;4.53;;;4.13;;
3487;SDS011;38546;48.170;11.724;2022-08-19T14:26:17;4.43;;;4.07;;
3487;SDS011;38546;48.170;11.724;2022-08-19T14:29:07;4.35;;;4.00;;
3487;SDS011;38546;48.170;11.724;2022-08-19T14:31:57;4.50;;;4.10;;
3487;SDS011;38546;48.170;11.724;2022-08-19T14:34:47;4.10;;;3.70;;
3487;SDS011;38546;48.170;11.724;2022-08-19T14:37:36;3.57;;;3.27;;
3487;SDS011;38546;48.170;11.724;2022-08-19T14:40:27;4.70;;;4.30;;
3487;SDS011;38546;48.170;11.724;2022-08-19T14:43:18;4.80;;;4.40;;
3487;SDS011;38546;48.170;11.724;2022-08-19T14:46:08;5.20;;;4.80;;
3487;SDS011;38546;48.170;11.724;2022-08-19T14:49:01;5.17;;;4.63;;
3487;SDS011;38546;48.170;11.724;2022-08-19T14:51:51;5.00;;;4.47;;
3487;SDS011;38546;48.170;11.724;2022-08-19T14:54:40;5.00;;;4.50;;
3487;SDS011;38546;48.170;11.724;2022-08-19T14:57:31;5.20;;;4.70;;
3487;SDS011;38546;48.170;11.724;2022-08-19T15:00:21;7.20;;;6.50;;
3487;SDS011;38546;48.170;11.724;2022-08-19T15:03:11;5.70;;;5.23;;
3487;SDS011;38546;48.170;11.724;2022-08-19T15:06:02;6.63;;;5.97;;
3487;SDS011;38546;48.170;11.724;2022-08-19T15:08:53;4.97;;;4.57;;
3487;SDS011;38546;48.170;11.724;2022-08-19T15:11:43;5.50;;;5.00;;
3487;SDS011;38546;48.170;11.724;2022-08-19T15:14:35;5.90;;;5.40;;
3487;SDS011;38546;48.170;11.724;2022-08-19T15:17:25;5.77;;;4.80;;
3487;SDS011;38546;48.170;11.724;2022-08-19T15:20:16;5.60;;;5.20;;
3487;SDS011;38546;48.170;11.724;2022-08-19T15:23:08;5.53;;;5.00;;
3487;SDS011;38546;48.170;11.724;2022-08-19T15:25:57;8.33;;;6.20;;
3487;SDS011;38546;48.170;11.724;2022-08-19T15:28:46;6.30;;;5.70;;
3487;SDS011;38546;48.170;11.724;2022-08-19T15:31:37;8.63;;;5.87;;
3487;SDS011;38546;48.170;11.724;2022-08-19T15:34:27;7.13;;;6.40;;
3487;SDS011;38546;48.170;11.724;2022-08-19T15:37:17;10.00;;;8.37;;
3487;SDS011;38546;48.170;11.724;2022-08-19T15:40:07;8.67;;;7.77;;
3487;SDS011;38546;48.170;11.724;2022-08-19T15:42:57;10.37;;;9.30;;
3487;SDS011;38546;48.170;11.724;2022-08-19T15:45:47;13.90;;;10.48;;
3487;SDS011;38546;48.170;11.724;2022-08-19T15:48:36;11.63;;;10.43;;
3487;SDS011;38546;48.170;11.724;2022-08-19T15:51:30;12.70;;;10.23;;
3487;SDS011;38546;48.170;11.724;2022-08-19T15:54:22;13.57;;;11.07;;
3487;SDS011;38546;48.170;11.724;2022-08-19T15:57:11;12.60;;;10.93;;
3487;SDS011;38546;48.170;11.724;2022-08-19T16:00:09;13.43;;;11.95;;
3487;SDS011;38546;48.170;11.724;2022-08-19T16:03:17;11.80;;;10.30;;
3487;SDS011;38546;48.170;11.724;2022-08-19T16:06:25;12.00;;;10.03;;
3487;SDS011;38546;48.170;11.724;2022-08-19T16:09:14;13.47;;;10.07;;
3487;SDS011;38546;48.170;11.724;2022-08-19T16:12:05;14.17;;;11.43;;
3487;SDS011;38546;48.170;11.724;2022-08-19T16:14:56;11.80;;;9.60;;
3487;SDS011;38546;48.170;11.724;2022-08-19T16:17:46;11.30;;;9.50;;
3487;SDS011;38546;48.170;11.724;2022-08-19T16:20:35;20.93;;;17.80;;
3487;SDS011;38546;48.170;11.724;2022-08-19T16:23:24;12.20;;;10.37;;
3487;SDS011;38546;48.170;11.724;2022-08-19T16:26:14;12.30;;;9.63;;
3487;SDS011;38546;48.170;11.724;2022-08-19T16:29:07;10.97;;;9.60;;
3487;SDS011;38546;48.170;11.724;2022-08-19T16:31:57;12.60;;;10.10;;
3487;SDS011;38546;48.170;11.724;2022-08-19T16:34:46;12.33;;;10.30;;
3487;SDS011;38546;48.170;11.724;2022-08-19T16:37:36;17.90;;;13.17;;
3487;SDS011;38546;48.170;11.724;2022-08-19T16:40:25;11.43;;;9.40;;
3487;SDS011;38546;48.170;11.724;2022-08-19T16:43:15;10.82;;;9.65;;
3487;SDS011;38546;48.170;11.724;2022-08-19T16:46:05;10.10;;;8.50;;
3487;SDS011;38546;48.170;11.724;2022-08-19T16:48:55;9.23;;;8.33;;
3487;SDS011;38546;48.170;11.724;2022-08-19T16:51:44;9.43;;;8.50;;
3487;SDS011;38546;48.170;11.724;2022-08-19T16:54:34;9.18;;;7.62;;
3487;SDS011;38546;48.170;11.724;2022-08-19T16:57:25;13.20;;;9.57;;
3487;SDS011;38546;48.170;11.724;2022-08-19T17:00:14;9.20;;;8.40;;
3487;SDS011;38546;48.170;11.724;2022-08-19T17:03:05;11.17;;;8.80;;
3487;SDS011;38546;48.170;11.724;2022-08-19T17:05:57;9.37;;;8.47;;